UKWW/VIN METAR and TAF weather

Enter ICAO airport designator
Station Type Date Time Source
UKWW METAR 2022/02/01 12:30 UTC NOAA

UKWW 011230Z 28002MPS 250V320 9999 SCT040 M00/M07 Q1006 NOSIG


Station Type Date Time Source
UKWW Decoded METAR 2022/02/01 12:30 UTC NOAA

Station name not available
Feb 01, 2022 - 07:30 AM EST / 2022.02.01 1230 UTC
Wind: from the W (280 degrees) at 4 MPH (4 KT) (direction variable):0
Visibility: greater than 7 mile(s):0
Sky conditions: partly cloudy
Temperature: 32 F (0 C)
Dew Point: 19 F (-7 C)
Relative Humidity: 59%
Pressure (altimeter): 29.71 in. Hg (1006 hPa)
ob: UKWW 011230Z 28002MPS 250V320 9999 SCT040 M00/M07 Q1006 NOSIG
cycle: 12

Station Type Date Time Source
UKWW TAF 2010/03/21 10:45 UTC NOAA

TAF UKWW 211045Z 2112/2212 24005G10MPS 9999 SCT020 BKN070
TEMPO 2115/2207 1400 -SHRA BR SCT004 BKN007CB
FM220700 34007G12MPS 9999 SCT015 BKN100 TX11/2112Z TN01/2204Z

Example: see airport list